Terminal Aerodrome Forecast
Issued by NWS Louisville, KY

Home | Current Version | Previous Version | Text Only | Print | Product List | Glossary On
Versions: 1 2 3 4 5 6 7 8 9 10 11 12 13 14
000
FTUS43 KLMK 130500 RRA
TAFSDF
TAF
KSDF 130558Z 1306/1412 21005KT P6SM BKN120
     FM131400 22010KT P6SM SCT050 BKN250
     FM132000 23010G18KT P6SM VCTS BKN050CB
     FM140000 22007KT P6SM VCSH BKN050=

USA.gov is the U.S. government's official web portal to all federal, state and local government web resources and services.